Erieau, Canada
Current Conditions -  °F | °C
As of 2:00 PM on Thursday 30 Oct 2014 (Local Time) from CYCK Reporting Station
Few Clouds Few Clouds  
Wind Chill: 50°   Ceiling: Unl
Heat Index: 50°   Visibility: 9mi
Dew Point: 32°   Wind: 6mph
Humidity: 50%   Direction: 320°NW
Pressure: 30.09"   Gusts: NA
Location:  42.25°N, 81.92°W
Report Text: CYCK 301800Z AUTO 32005KT 9SM FEW035 10/00 A3009 RMK SLP193
Loading
Personal Weather Stations






























Interactive Weather Map
Tropical Storm Tracking
New forecast layout! Learn more

10-Day Weather Forecast

Advertisements
Track Severe Weather on mobile